sensor_id;sensor_type;location;lat;lon;timestamp;P1;durP1;ratioP1;P2;durP2;ratioP2
18265;SDS011;9259;48.194;16.322;2023-09-12T00:00:52;14.50;;;6.72;;
18265;SDS011;9259;48.194;16.322;2023-09-12T00:03:20;14.10;;;6.97;;
18265;SDS011;9259;48.194;16.322;2023-09-12T00:05:50;15.40;;;7.75;;
18265;SDS011;9259;48.194;16.322;2023-09-12T00:08:22;12.88;;;6.72;;
18265;SDS011;9259;48.194;16.322;2023-09-12T00:10:58;13.73;;;7.35;;
18265;SDS011;9259;48.194;16.322;2023-09-12T00:13:29;15.80;;;7.20;;
18265;SDS011;9259;48.194;16.322;2023-09-12T00:15:58;17.60;;;7.28;;
18265;SDS011;9259;48.194;16.322;2023-09-12T00:18:27;16.23;;;7.10;;
18265;SDS011;9259;48.194;16.322;2023-09-12T00:20:55;13.50;;;7.20;;
18265;SDS011;9259;48.194;16.322;2023-09-12T00:23:25;15.18;;;7.40;;
18265;SDS011;9259;48.194;16.322;2023-09-12T00:25:53;13.55;;;7.18;;
18265;SDS011;9259;48.194;16.322;2023-09-12T00:28:21;12.77;;;8.15;;
18265;SDS011;9259;48.194;16.322;2023-09-12T00:30:49;12.95;;;7.97;;
18265;SDS011;9259;48.194;16.322;2023-09-12T00:33:19;16.55;;;8.13;;
18265;SDS011;9259;48.194;16.322;2023-09-12T00:35:47;15.95;;;7.70;;
18265;SDS011;9259;48.194;16.322;2023-09-12T00:38:15;14.48;;;7.68;;
18265;SDS011;9259;48.194;16.322;2023-09-12T00:40:43;13.02;;;7.20;;
18265;SDS011;9259;48.194;16.322;2023-09-12T00:43:11;15.43;;;7.30;;
18265;SDS011;9259;48.194;16.322;2023-09-12T00:45:39;10.93;;;6.35;;
18265;SDS011;9259;48.194;16.322;2023-09-12T00:48:07;15.23;;;7.88;;
18265;SDS011;9259;48.194;16.322;2023-09-12T00:50:38;12.43;;;7.07;;
18265;SDS011;9259;48.194;16.322;2023-09-12T00:53:06;9.90;;;7.10;;
18265;SDS011;9259;48.194;16.322;2023-09-12T00:55:34;11.43;;;6.70;;
18265;SDS011;9259;48.194;16.322;2023-09-12T00:58:04;10.40;;;6.78;;
18265;SDS011;9259;48.194;16.322;2023-09-12T01:00:33;14.25;;;7.28;;
18265;SDS011;9259;48.194;16.322;2023-09-12T01:03:01;13.23;;;8.20;;
18265;SDS011;9259;48.194;16.322;2023-09-12T01:05:30;14.50;;;7.95;;
18265;SDS011;9259;48.194;16.322;2023-09-12T01:07:59;15.02;;;7.97;;
18265;SDS011;9259;48.194;16.322;2023-09-12T01:10:28;13.80;;;7.82;;
18265;SDS011;9259;48.194;16.322;2023-09-12T01:12:56;13.85;;;7.22;;
18265;SDS011;9259;48.194;16.322;2023-09-12T01:15:24;13.13;;;7.47;;
18265;SDS011;9259;48.194;16.322;2023-09-12T01:17:52;11.18;;;7.63;;
18265;SDS011;9259;48.194;16.322;2023-09-12T01:20:22;13.73;;;7.93;;
18265;SDS011;9259;48.194;16.322;2023-09-12T01:22:55;10.38;;;7.03;;
18265;SDS011;9259;48.194;16.322;2023-09-12T01:25:34;12.82;;;7.75;;
18265;SDS011;9259;48.194;16.322;2023-09-12T01:28:16;12.27;;;7.28;;
18265;SDS011;9259;48.194;16.322;2023-09-12T01:30:45;11.13;;;6.90;;
18265;SDS011;9259;48.194;16.322;2023-09-12T01:33:13;11.02;;;7.60;;
18265;SDS011;9259;48.194;16.322;2023-09-12T01:35:41;10.95;;;6.93;;
18265;SDS011;9259;48.194;16.322;2023-09-12T01:38:12;10.30;;;7.20;;
18265;SDS011;9259;48.194;16.322;2023-09-12T01:40:42;11.90;;;7.18;;
18265;SDS011;9259;48.194;16.322;2023-09-12T01:43:13;12.57;;;7.47;;
18265;SDS011;9259;48.194;16.322;2023-09-12T01:45:45;13.65;;;7.22;;
18265;SDS011;9259;48.194;16.322;2023-09-12T01:48:14;11.95;;;7.10;;
18265;SDS011;9259;48.194;16.322;2023-09-12T01:50:47;13.50;;;7.28;;
18265;SDS011;9259;48.194;16.322;2023-09-12T01:53:15;11.43;;;7.38;;
18265;SDS011;9259;48.194;16.322;2023-09-12T01:55:43;18.13;;;7.05;;
18265;SDS011;9259;48.194;16.322;2023-09-12T01:58:12;12.38;;;7.25;;
18265;SDS011;9259;48.194;16.322;2023-09-12T02:00:42;12.13;;;7.30;;
18265;SDS011;9259;48.194;16.322;2023-09-12T02:03:10;9.70;;;6.25;;
18265;SDS011;9259;48.194;16.322;2023-09-12T02:05:38;10.85;;;7.05;;
18265;SDS011;9259;48.194;16.322;2023-09-12T02:08:07;11.65;;;7.22;;
18265;SDS011;9259;48.194;16.322;2023-09-12T02:10:35;13.05;;;7.55;;
18265;SDS011;9259;48.194;16.322;2023-09-12T02:13:03;14.95;;;7.97;;
18265;SDS011;9259;48.194;16.322;2023-09-12T02:15:31;12.57;;;7.55;;
18265;SDS011;9259;48.194;16.322;2023-09-12T02:18:00;16.58;;;8.23;;
18265;SDS011;9259;48.194;16.322;2023-09-12T02:20:29;10.88;;;7.22;;
18265;SDS011;9259;48.194;16.322;2023-09-12T02:22:59;13.63;;;7.53;;
18265;SDS011;9259;48.194;16.322;2023-09-12T02:25:27;13.07;;;7.55;;
18265;SDS011;9259;48.194;16.322;2023-09-12T02:27:55;13.18;;;7.35;;
18265;SDS011;9259;48.194;16.322;2023-09-12T02:30:23;13.32;;;7.53;;
18265;SDS011;9259;48.194;16.322;2023-09-12T02:32:51;13.80;;;8.10;;
18265;SDS011;9259;48.194;16.322;2023-09-12T02:35:20;13.93;;;7.40;;
18265;SDS011;9259;48.194;16.322;2023-09-12T02:37:48;17.23;;;7.22;;
18265;SDS011;9259;48.194;16.322;2023-09-12T02:40:16;13.15;;;7.57;;
18265;SDS011;9259;48.194;16.322;2023-09-12T02:42:44;13.25;;;7.35;;
18265;SDS011;9259;48.194;16.322;2023-09-12T02:45:13;12.90;;;7.30;;
18265;SDS011;9259;48.194;16.322;2023-09-12T02:47:41;14.32;;;7.22;;
18265;SDS011;9259;48.194;16.322;2023-09-12T02:50:09;16.23;;;7.55;;
18265;SDS011;9259;48.194;16.322;2023-09-12T02:52:38;10.57;;;7.18;;
18265;SDS011;9259;48.194;16.322;2023-09-12T02:55:06;13.93;;;8.20;;
18265;SDS011;9259;48.194;16.322;2023-09-12T02:57:34;13.23;;;7.07;;
18265;SDS011;9259;48.194;16.322;2023-09-12T03:00:03;15.95;;;7.72;;
18265;SDS011;9259;48.194;16.322;2023-09-12T03:02:34;11.95;;;7.28;;
18265;SDS011;9259;48.194;16.322;2023-09-12T03:05:02;13.35;;;8.55;;
18265;SDS011;9259;48.194;16.322;2023-09-12T03:07:30;12.65;;;7.78;;
18265;SDS011;9259;48.194;16.322;2023-09-12T03:09:59;21.48;;;7.95;;
18265;SDS011;9259;48.194;16.322;2023-09-12T03:12:27;14.75;;;7.88;;
18265;SDS011;9259;48.194;16.322;2023-09-12T03:14:56;14.98;;;7.75;;
18265;SDS011;9259;48.194;16.322;2023-09-12T03:17:24;13.65;;;8.10;;
18265;SDS011;9259;48.194;16.322;2023-09-12T03:19:52;19.23;;;7.47;;
18265;SDS011;9259;48.194;16.322;2023-09-12T03:22:20;17.02;;;8.38;;
18265;SDS011;9259;48.194;16.322;2023-09-12T03:24:48;10.65;;;7.50;;
18265;SDS011;9259;48.194;16.322;2023-09-12T03:27:17;14.30;;;8.45;;
18265;SDS011;9259;48.194;16.322;2023-09-12T03:29:46;11.77;;;8.13;;
18265;SDS011;9259;48.194;16.322;2023-09-12T03:32:14;14.98;;;8.18;;
18265;SDS011;9259;48.194;16.322;2023-09-12T03:34:42;13.15;;;8.23;;
18265;SDS011;9259;48.194;16.322;2023-09-12T03:37:10;19.42;;;8.57;;
18265;SDS011;9259;48.194;16.322;2023-09-12T03:39:38;14.90;;;8.68;;
18265;SDS011;9259;48.194;16.322;2023-09-12T03:42:07;11.20;;;7.78;;
18265;SDS011;9259;48.194;16.322;2023-09-12T03:44:36;13.52;;;8.60;;
18265;SDS011;9259;48.194;16.322;2023-09-12T03:47:04;15.15;;;9.18;;
18265;SDS011;9259;48.194;16.322;2023-09-12T03:49:33;14.77;;;8.63;;
18265;SDS011;9259;48.194;16.322;2023-09-12T03:52:01;11.63;;;7.80;;
18265;SDS011;9259;48.194;16.322;2023-09-12T03:54:30;13.13;;;8.38;;
18265;SDS011;9259;48.194;16.322;2023-09-12T03:56:58;13.10;;;8.57;;
18265;SDS011;9259;48.194;16.322;2023-09-12T03:59:26;15.13;;;8.20;;
18265;SDS011;9259;48.194;16.322;2023-09-12T04:01:55;14.85;;;8.35;;
18265;SDS011;9259;48.194;16.322;2023-09-12T04:04:23;13.75;;;8.48;;
18265;SDS011;9259;48.194;16.322;2023-09-12T04:06:51;20.40;;;9.02;;
18265;SDS011;9259;48.194;16.322;2023-09-12T04:09:20;17.00;;;8.88;;
18265;SDS011;9259;48.194;16.322;2023-09-12T04:11:48;12.65;;;8.40;;
18265;SDS011;9259;48.194;16.322;2023-09-12T04:14:16;14.63;;;8.10;;
18265;SDS011;9259;48.194;16.322;2023-09-12T04:16:44;13.13;;;8.60;;
18265;SDS011;9259;48.194;16.322;2023-09-12T04:19:14;16.60;;;8.60;;
18265;SDS011;9259;48.194;16.322;2023-09-12T04:21:42;12.48;;;7.97;;
18265;SDS011;9259;48.194;16.322;2023-09-12T04:24:10;15.00;;;8.50;;
18265;SDS011;9259;48.194;16.322;2023-09-12T04:26:38;14.77;;;8.52;;
18265;SDS011;9259;48.194;16.322;2023-09-12T04:29:06;23.10;;;8.98;;
18265;SDS011;9259;48.194;16.322;2023-09-12T04:31:34;19.05;;;8.98;;
18265;SDS011;9259;48.194;16.322;2023-09-12T04:34:02;21.27;;;8.95;;
18265;SDS011;9259;48.194;16.322;2023-09-12T04:36:32;15.63;;;8.18;;
18265;SDS011;9259;48.194;16.322;2023-09-12T04:39:00;17.13;;;8.50;;
18265;SDS011;9259;48.194;16.322;2023-09-12T04:41:28;13.32;;;8.50;;
18265;SDS011;9259;48.194;16.322;2023-09-12T04:43:56;16.45;;;9.35;;
18265;SDS011;9259;48.194;16.322;2023-09-12T04:46:25;17.08;;;8.85;;
18265;SDS011;9259;48.194;16.322;2023-09-12T04:48:53;17.67;;;8.50;;
18265;SDS011;9259;48.194;16.322;2023-09-12T04:51:21;17.00;;;9.43;;
18265;SDS011;9259;48.194;16.322;2023-09-12T04:53:50;13.75;;;8.63;;
18265;SDS011;9259;48.194;16.322;2023-09-12T04:56:21;19.83;;;9.50;;
18265;SDS011;9259;48.194;16.322;2023-09-12T04:58:50;17.63;;;9.95;;
18265;SDS011;9259;48.194;16.322;2023-09-12T05:01:18;14.35;;;9.25;;
18265;SDS011;9259;48.194;16.322;2023-09-12T05:03:46;15.50;;;9.25;;
18265;SDS011;9259;48.194;16.322;2023-09-12T05:06:14;17.80;;;9.43;;
18265;SDS011;9259;48.194;16.322;2023-09-12T05:08:43;15.02;;;9.05;;
18265;SDS011;9259;48.194;16.322;2023-09-12T05:11:12;18.85;;;9.80;;
18265;SDS011;9259;48.194;16.322;2023-09-12T05:13:41;19.85;;;9.43;;
18265;SDS011;9259;48.194;16.322;2023-09-12T05:16:09;17.17;;;9.40;;
18265;SDS011;9259;48.194;16.322;2023-09-12T05:18:37;14.38;;;9.10;;
18265;SDS011;9259;48.194;16.322;2023-09-12T05:21:05;13.98;;;8.63;;
18265;SDS011;9259;48.194;16.322;2023-09-12T05:23:33;17.63;;;8.48;;
18265;SDS011;9259;48.194;16.322;2023-09-12T05:26:01;14.07;;;8.55;;
18265;SDS011;9259;48.194;16.322;2023-09-12T05:28:30;16.63;;;8.68;;
18265;SDS011;9259;48.194;16.322;2023-09-12T05:30:58;15.25;;;8.95;;
18265;SDS011;9259;48.194;16.322;2023-09-12T05:33:26;16.92;;;8.90;;
18265;SDS011;9259;48.194;16.322;2023-09-12T05:35:54;16.00;;;8.40;;
18265;SDS011;9259;48.194;16.322;2023-09-12T05:38:22;15.70;;;9.13;;
18265;SDS011;9259;48.194;16.322;2023-09-12T05:40:50;15.70;;;8.25;;
18265;SDS011;9259;48.194;16.322;2023-09-12T05:43:18;15.50;;;9.10;;
18265;SDS011;9259;48.194;16.322;2023-09-12T05:45:48;20.35;;;9.35;;
18265;SDS011;9259;48.194;16.322;2023-09-12T05:48:16;18.83;;;9.18;;
18265;SDS011;9259;48.194;16.322;2023-09-12T05:50:44;20.88;;;9.07;;
18265;SDS011;9259;48.194;16.322;2023-09-12T05:53:12;23.85;;;9.35;;
18265;SDS011;9259;48.194;16.322;2023-09-12T05:55:40;16.40;;;9.93;;
18265;SDS011;9259;48.194;16.322;2023-09-12T05:58:08;15.43;;;9.40;;
18265;SDS011;9259;48.194;16.322;2023-09-12T06:00:36;26.02;;;10.38;;
18265;SDS011;9259;48.194;16.322;2023-09-12T06:03:05;18.85;;;9.73;;
18265;SDS011;9259;48.194;16.322;2023-09-12T06:05:33;19.58;;;10.38;;
18265;SDS011;9259;48.194;16.322;2023-09-12T06:08:02;15.77;;;10.43;;
18265;SDS011;9259;48.194;16.322;2023-09-12T06:10:30;16.77;;;10.15;;
18265;SDS011;9259;48.194;16.322;2023-09-12T06:12:59;21.95;;;10.93;;
18265;SDS011;9259;48.194;16.322;2023-09-12T06:15:27;22.27;;;12.05;;
18265;SDS011;9259;48.194;16.322;2023-09-12T06:17:55;16.88;;;11.02;;
18265;SDS011;9259;48.194;16.322;2023-09-12T06:20:25;21.27;;;11.55;;
18265;SDS011;9259;48.194;16.322;2023-09-12T06:22:53;24.98;;;11.93;;
18265;SDS011;9259;48.194;16.322;2023-09-12T06:25:21;19.63;;;11.93;;
18265;SDS011;9259;48.194;16.322;2023-09-12T06:27:49;18.95;;;11.82;;
18265;SDS011;9259;48.194;16.322;2023-09-12T06:30:17;21.05;;;11.50;;
18265;SDS011;9259;48.194;16.322;2023-09-12T06:32:45;18.95;;;10.85;;
18265;SDS011;9259;48.194;16.322;2023-09-12T06:35:13;17.73;;;9.95;;
18265;SDS011;9259;48.194;16.322;2023-09-12T06:37:44;20.15;;;11.25;;
18265;SDS011;9259;48.194;16.322;2023-09-12T06:40:12;20.98;;;11.73;;
18265;SDS011;9259;48.194;16.322;2023-09-12T06:42:41;22.52;;;10.82;;
18265;SDS011;9259;48.194;16.322;2023-09-12T06:45:09;22.73;;;11.95;;
18265;SDS011;9259;48.194;16.322;2023-09-12T06:47:38;20.48;;;11.43;;
18265;SDS011;9259;48.194;16.322;2023-09-12T06:50:06;23.98;;;11.65;;
18265;SDS011;9259;48.194;16.322;2023-09-12T06:52:34;19.63;;;11.25;;
18265;SDS011;9259;48.194;16.322;2023-09-12T06:55:04;20.77;;;11.55;;
18265;SDS011;9259;48.194;16.322;2023-09-12T06:57:33;20.02;;;11.25;;
18265;SDS011;9259;48.194;16.322;2023-09-12T07:00:01;17.30;;;11.02;;
18265;SDS011;9259;48.194;16.322;2023-09-12T07:02:32;22.15;;;11.73;;
18265;SDS011;9259;48.194;16.322;2023-09-12T07:05:00;20.25;;;11.52;;
18265;SDS011;9259;48.194;16.322;2023-09-12T07:07:29;17.58;;;11.02;;
18265;SDS011;9259;48.194;16.322;2023-09-12T07:09:58;20.95;;;11.32;;
18265;SDS011;9259;48.194;16.322;2023-09-12T07:12:27;21.45;;;11.88;;
18265;SDS011;9259;48.194;16.322;2023-09-12T07:14:55;21.45;;;12.20;;
18265;SDS011;9259;48.194;16.322;2023-09-12T07:17:23;21.17;;;12.70;;
18265;SDS011;9259;48.194;16.322;2023-09-12T07:19:52;26.10;;;12.60;;
18265;SDS011;9259;48.194;16.322;2023-09-12T07:22:20;21.92;;;13.15;;
18265;SDS011;9259;48.194;16.322;2023-09-12T07:24:48;21.20;;;11.65;;
18265;SDS011;9259;48.194;16.322;2023-09-12T07:27:16;23.75;;;12.82;;
18265;SDS011;9259;48.194;16.322;2023-09-12T07:29:46;22.88;;;12.57;;
18265;SDS011;9259;48.194;16.322;2023-09-12T07:32:14;27.48;;;11.90;;
18265;SDS011;9259;48.194;16.322;2023-09-12T07:34:42;24.52;;;12.25;;
18265;SDS011;9259;48.194;16.322;2023-09-12T07:37:14;21.33;;;11.68;;
18265;SDS011;9259;48.194;16.322;2023-09-12T07:39:42;19.60;;;11.27;;
18265;SDS011;9259;48.194;16.322;2023-09-12T07:42:10;24.42;;;11.88;;
18265;SDS011;9259;48.194;16.322;2023-09-12T07:44:38;25.60;;;13.07;;
18265;SDS011;9259;48.194;16.322;2023-09-12T07:47:08;28.85;;;12.07;;
18265;SDS011;9259;48.194;16.322;2023-09-12T07:49:36;21.02;;;11.95;;
18265;SDS011;9259;48.194;16.322;2023-09-12T07:52:04;22.58;;;11.70;;
18265;SDS011;9259;48.194;16.322;2023-09-12T07:54:32;22.73;;;11.07;;
18265;SDS011;9259;48.194;16.322;2023-09-12T07:57:02;19.05;;;11.93;;
18265;SDS011;9259;48.194;16.322;2023-09-12T07:59:31;22.05;;;12.02;;
18265;SDS011;9259;48.194;16.322;2023-09-12T08:01:59;25.83;;;13.15;;
18265;SDS011;9259;48.194;16.322;2023-09-12T08:04:28;25.42;;;12.18;;
18265;SDS011;9259;48.194;16.322;2023-09-12T08:06:56;28.70;;;13.40;;
18265;SDS011;9259;48.194;16.322;2023-09-12T08:09:28;26.10;;;13.50;;
18265;SDS011;9259;48.194;16.322;2023-09-12T08:12:16;19.00;;;12.35;;
18265;SDS011;9259;48.194;16.322;2023-09-12T08:14:44;26.83;;;13.23;;
18265;SDS011;9259;48.194;16.322;2023-09-12T08:17:13;23.17;;;12.45;;
18265;SDS011;9259;48.194;16.322;2023-09-12T08:19:42;19.77;;;13.20;;
18265;SDS011;9259;48.194;16.322;2023-09-12T08:22:11;19.85;;;11.82;;
18265;SDS011;9259;48.194;16.322;2023-09-12T08:24:39;20.63;;;12.68;;
18265;SDS011;9259;48.194;16.322;2023-09-12T08:27:07;22.55;;;12.68;;
18265;SDS011;9259;48.194;16.322;2023-09-12T08:29:35;22.92;;;12.52;;
18265;SDS011;9259;48.194;16.322;2023-09-12T08:32:04;21.38;;;12.40;;
18265;SDS011;9259;48.194;16.322;2023-09-12T08:34:32;20.75;;;12.75;;
18265;SDS011;9259;48.194;16.322;2023-09-12T08:37:01;17.40;;;11.07;;
18265;SDS011;9259;48.194;16.322;2023-09-12T08:39:40;18.55;;;11.05;;
18265;SDS011;9259;48.194;16.322;2023-09-12T08:42:10;22.55;;;12.10;;
18265;SDS011;9259;48.194;16.322;2023-09-12T08:44:39;19.63;;;12.23;;
18265;SDS011;9259;48.194;16.322;2023-09-12T08:47:08;25.83;;;11.50;;
18265;SDS011;9259;48.194;16.322;2023-09-12T08:49:36;19.10;;;11.82;;
18265;SDS011;9259;48.194;16.322;2023-09-12T08:52:06;23.90;;;12.18;;
18265;SDS011;9259;48.194;16.322;2023-09-12T08:54:34;23.13;;;11.18;;
18265;SDS011;9259;48.194;16.322;2023-09-12T08:57:04;21.02;;;11.60;;
18265;SDS011;9259;48.194;16.322;2023-09-12T08:59:34;19.10;;;11.15;;
18265;SDS011;9259;48.194;16.322;2023-09-12T09:02:02;19.33;;;11.68;;
18265;SDS011;9259;48.194;16.322;2023-09-12T09:04:30;17.70;;;10.55;;
18265;SDS011;9259;48.194;16.322;2023-09-12T09:06:59;16.05;;;10.70;;
18265;SDS011;9259;48.194;16.322;2023-09-12T09:09:28;18.63;;;10.63;;
18265;SDS011;9259;48.194;16.322;2023-09-12T09:11:57;20.23;;;11.18;;
18265;SDS011;9259;48.194;16.322;2023-09-12T09:14:25;22.13;;;10.82;;
18265;SDS011;9259;48.194;16.322;2023-09-12T09:16:53;16.85;;;10.23;;
18265;SDS011;9259;48.194;16.322;2023-09-12T09:19:21;16.17;;;11.00;;
18265;SDS011;9259;48.194;16.322;2023-09-12T09:21:49;19.52;;;11.50;;
18265;SDS011;9259;48.194;16.322;2023-09-12T09:24:17;23.15;;;11.38;;
18265;SDS011;9259;48.194;16.322;2023-09-12T09:26:49;21.63;;;10.73;;
18265;SDS011;9259;48.194;16.322;2023-09-12T09:29:24;20.67;;;10.85;;
18265;SDS011;9259;48.194;16.322;2023-09-12T09:31:57;18.50;;;10.15;;
18265;SDS011;9259;48.194;16.322;2023-09-12T09:34:26;18.58;;;11.43;;
18265;SDS011;9259;48.194;16.322;2023-09-12T09:36:56;18.23;;;11.27;;
18265;SDS011;9259;48.194;16.322;2023-09-12T09:39:25;19.55;;;10.45;;
18265;SDS011;9259;48.194;16.322;2023-09-12T09:41:56;20.52;;;11.30;;
18265;SDS011;9259;48.194;16.322;2023-09-12T09:44:25;18.67;;;10.50;;
18265;SDS011;9259;48.194;16.322;2023-09-12T09:46:55;19.80;;;10.98;;
18265;SDS011;9259;48.194;16.322;2023-09-12T09:49:26;17.77;;;11.27;;
18265;SDS011;9259;48.194;16.322;2023-09-12T09:51:54;18.38;;;12.25;;
18265;SDS011;9259;48.194;16.322;2023-09-12T09:54:30;16.15;;;10.73;;
18265;SDS011;9259;48.194;16.322;2023-09-12T09:56:59;21.33;;;11.57;;
18265;SDS011;9259;48.194;16.322;2023-09-12T09:59:28;22.25;;;11.77;;
18265;SDS011;9259;48.194;16.322;2023-09-12T10:01:57;17.38;;;10.68;;
18265;SDS011;9259;48.194;16.322;2023-09-12T10:04:26;18.10;;;10.85;;
18265;SDS011;9259;48.194;16.322;2023-09-12T10:06:55;18.45;;;11.65;;
18265;SDS011;9259;48.194;16.322;2023-09-12T10:09:25;19.60;;;10.70;;
18265;SDS011;9259;48.194;16.322;2023-09-12T10:11:54;21.83;;;10.75;;
18265;SDS011;9259;48.194;16.322;2023-09-12T10:14:24;17.73;;;10.95;;
18265;SDS011;9259;48.194;16.322;2023-09-12T10:16:56;14.90;;;9.88;;
18265;SDS011;9259;48.194;16.322;2023-09-12T10:19:29;19.75;;;10.60;;
18265;SDS011;9259;48.194;16.322;2023-09-12T10:22:04;18.25;;;10.65;;
18265;SDS011;9259;48.194;16.322;2023-09-12T10:24:36;19.38;;;10.52;;
18265;SDS011;9259;48.194;16.322;2023-09-12T10:27:04;17.10;;;10.30;;
18265;SDS011;9259;48.194;16.322;2023-09-12T10:29:34;19.77;;;10.82;;
18265;SDS011;9259;48.194;16.322;2023-09-12T10:32:03;17.63;;;11.68;;
18265;SDS011;9259;48.194;16.322;2023-09-12T10:34:32;17.65;;;11.07;;
18265;SDS011;9259;48.194;16.322;2023-09-12T10:37:00;19.13;;;9.90;;
18265;SDS011;9259;48.194;16.322;2023-09-12T10:39:31;15.60;;;10.32;;
18265;SDS011;9259;48.194;16.322;2023-09-12T10:42:00;20.02;;;10.10;;
18265;SDS011;9259;48.194;16.322;2023-09-12T10:44:31;18.88;;;9.98;;
18265;SDS011;9259;48.194;16.322;2023-09-12T10:47:01;18.92;;;10.88;;
18265;SDS011;9259;48.194;16.322;2023-09-12T10:49:34;16.63;;;9.85;;
18265;SDS011;9259;48.194;16.322;2023-09-12T10:52:03;17.20;;;9.88;;
18265;SDS011;9259;48.194;16.322;2023-09-12T10:54:38;19.10;;;9.65;;
18265;SDS011;9259;48.194;16.322;2023-09-12T10:57:07;15.48;;;9.77;;
18265;SDS011;9259;48.194;16.322;2023-09-12T10:59:37;16.90;;;9.52;;
18265;SDS011;9259;48.194;16.322;2023-09-12T11:02:39;12.50;;;9.73;;
18265;SDS011;9259;48.194;16.322;2023-09-12T11:08:18;14.77;;;9.35;;
18265;SDS011;9259;48.194;16.322;2023-09-12T11:10:58;13.70;;;9.63;;
18265;SDS011;9259;48.194;16.322;2023-09-12T11:13:45;16.30;;;9.50;;
18265;SDS011;9259;48.194;16.322;2023-09-12T11:16:13;15.93;;;8.50;;
18265;SDS011;9259;48.194;16.322;2023-09-12T11:21:42;15.95;;;8.82;;
18265;SDS011;9259;48.194;16.322;2023-09-12T11:24:11;16.75;;;9.05;;
18265;SDS011;9259;48.194;16.322;2023-09-12T11:26:52;12.90;;;8.55;;
18265;SDS011;9259;48.194;16.322;2023-09-12T11:29:21;12.82;;;8.52;;
18265;SDS011;9259;48.194;16.322;2023-09-12T11:31:54;12.95;;;8.23;;
18265;SDS011;9259;48.194;16.322;2023-09-12T11:34:26;12.95;;;8.40;;
18265;SDS011;9259;48.194;16.322;2023-09-12T11:36:55;12.27;;;8.18;;
18265;SDS011;9259;48.194;16.322;2023-09-12T11:39:25;14.45;;;8.05;;
18265;SDS011;9259;48.194;16.322;2023-09-12T11:41:55;13.02;;;9.20;;
18265;SDS011;9259;48.194;16.322;2023-09-12T11:44:24;12.20;;;7.97;;
18265;SDS011;9259;48.194;16.322;2023-09-12T11:46:52;11.57;;;7.43;;
18265;SDS011;9259;48.194;16.322;2023-09-12T11:49:21;13.15;;;8.30;;
18265;SDS011;9259;48.194;16.322;2023-09-12T11:51:51;14.18;;;8.10;;
18265;SDS011;9259;48.194;16.322;2023-09-12T11:54:20;12.05;;;7.47;;
18265;SDS011;9259;48.194;16.322;2023-09-12T11:56:52;12.43;;;8.13;;
18265;SDS011;9259;48.194;16.322;2023-09-12T11:59:22;14.55;;;8.95;;
18265;SDS011;9259;48.194;16.322;2023-09-12T12:01:50;12.45;;;8.10;;
18265;SDS011;9259;48.194;16.322;2023-09-12T12:04:20;15.35;;;8.25;;
18265;SDS011;9259;48.194;16.322;2023-09-12T12:06:50;15.65;;;8.10;;
18265;SDS011;9259;48.194;16.322;2023-09-12T12:09:19;12.55;;;7.60;;
18265;SDS011;9259;48.194;16.322;2023-09-12T12:11:47;11.90;;;7.32;;
18265;SDS011;9259;48.194;16.322;2023-09-12T12:14:16;12.25;;;7.65;;
18265;SDS011;9259;48.194;16.322;2023-09-12T12:16:45;10.55;;;7.20;;
18265;SDS011;9259;48.194;16.322;2023-09-12T12:19:13;13.48;;;7.50;;
18265;SDS011;9259;48.194;16.322;2023-09-12T12:21:41;13.98;;;8.02;;
18265;SDS011;9259;48.194;16.322;2023-09-12T12:24:12;13.95;;;8.43;;
18265;SDS011;9259;48.194;16.322;2023-09-12T12:26:41;12.38;;;7.45;;
18265;SDS011;9259;48.194;16.322;2023-09-12T12:29:09;13.93;;;8.23;;
18265;SDS011;9259;48.194;16.322;2023-09-12T12:31:39;13.85;;;7.57;;
18265;SDS011;9259;48.194;16.322;2023-09-12T12:34:07;10.50;;;7.68;;
18265;SDS011;9259;48.194;16.322;2023-09-12T12:36:40;17.10;;;7.78;;
18265;SDS011;9259;48.194;16.322;2023-09-12T12:39:11;12.20;;;6.93;;
18265;SDS011;9259;48.194;16.322;2023-09-12T12:41:40;12.05;;;7.20;;
18265;SDS011;9259;48.194;16.322;2023-09-12T12:44:09;8.73;;;7.07;;
18265;SDS011;9259;48.194;16.322;2023-09-12T12:46:47;10.82;;;7.40;;
18265;SDS011;9259;48.194;16.322;2023-09-12T12:49:15;12.05;;;7.53;;
18265;SDS011;9259;48.194;16.322;2023-09-12T12:51:44;11.30;;;7.20;;
18265;SDS011;9259;48.194;16.322;2023-09-12T12:54:14;12.15;;;6.97;;
18265;SDS011;9259;48.194;16.322;2023-09-12T12:56:42;8.57;;;6.63;;
18265;SDS011;9259;48.194;16.322;2023-09-12T12:59:11;14.00;;;7.10;;
18265;SDS011;9259;48.194;16.322;2023-09-12T13:01:39;9.25;;;6.55;;
18265;SDS011;9259;48.194;16.322;2023-09-12T13:04:07;12.73;;;7.00;;
18265;SDS011;9259;48.194;16.322;2023-09-12T13:06:36;8.95;;;7.15;;
18265;SDS011;9259;48.194;16.322;2023-09-12T13:09:06;11.50;;;6.75;;
18265;SDS011;9259;48.194;16.322;2023-09-12T13:11:38;10.38;;;7.30;;
18265;SDS011;9259;48.194;16.322;2023-09-12T13:14:08;13.98;;;7.15;;
18265;SDS011;9259;48.194;16.322;2023-09-12T13:16:36;15.10;;;7.07;;
18265;SDS011;9259;48.194;16.322;2023-09-12T13:19:06;9.30;;;7.13;;
18265;SDS011;9259;48.194;16.322;2023-09-12T13:21:34;12.30;;;6.90;;
18265;SDS011;9259;48.194;16.322;2023-09-12T13:24:03;12.88;;;6.85;;
18265;SDS011;9259;48.194;16.322;2023-09-12T13:26:32;14.80;;;6.68;;
18265;SDS011;9259;48.194;16.322;2023-09-12T13:29:01;10.18;;;5.93;;
18265;SDS011;9259;48.194;16.322;2023-09-12T13:31:29;11.32;;;7.30;;
18265;SDS011;9259;48.194;16.322;2023-09-12T13:33:57;13.77;;;6.93;;
18265;SDS011;9259;48.194;16.322;2023-09-12T13:36:25;11.93;;;6.97;;
18265;SDS011;9259;48.194;16.322;2023-09-12T13:38:53;10.43;;;6.65;;
18265;SDS011;9259;48.194;16.322;2023-09-12T13:41:22;13.20;;;6.38;;
18265;SDS011;9259;48.194;16.322;2023-09-12T13:43:51;13.98;;;6.88;;
18265;SDS011;9259;48.194;16.322;2023-09-12T13:46:20;14.05;;;7.03;;
18265;SDS011;9259;48.194;16.322;2023-09-12T13:48:48;12.63;;;6.80;;
18265;SDS011;9259;48.194;16.322;2023-09-12T13:51:16;9.25;;;6.68;;
18265;SDS011;9259;48.194;16.322;2023-09-12T13:53:44;11.20;;;6.30;;
18265;SDS011;9259;48.194;16.322;2023-09-12T13:56:12;15.05;;;7.00;;
18265;SDS011;9259;48.194;16.322;2023-09-12T13:58:40;13.02;;;6.72;;
18265;SDS011;9259;48.194;16.322;2023-09-12T14:01:09;14.50;;;7.15;;
18265;SDS011;9259;48.194;16.322;2023-09-12T14:03:39;18.73;;;7.70;;
18265;SDS011;9259;48.194;16.322;2023-09-12T14:06:07;12.07;;;6.78;;
18265;SDS011;9259;48.194;16.322;2023-09-12T14:08:36;13.00;;;6.57;;
18265;SDS011;9259;48.194;16.322;2023-09-12T14:11:04;11.85;;;7.18;;
18265;SDS011;9259;48.194;16.322;2023-09-12T14:13:33;15.90;;;6.60;;
18265;SDS011;9259;48.194;16.322;2023-09-12T14:16:02;10.18;;;6.45;;
18265;SDS011;9259;48.194;16.322;2023-09-12T14:18:32;11.48;;;7.22;;
18265;SDS011;9259;48.194;16.322;2023-09-12T14:21:03;17.25;;;6.78;;
18265;SDS011;9259;48.194;16.322;2023-09-12T14:23:32;12.35;;;7.40;;
18265;SDS011;9259;48.194;16.322;2023-09-12T14:26:02;10.98;;;7.00;;
18265;SDS011;9259;48.194;16.322;2023-09-12T14:28:32;11.85;;;6.70;;
18265;SDS011;9259;48.194;16.322;2023-09-12T14:31:02;9.25;;;6.70;;
18265;SDS011;9259;48.194;16.322;2023-09-12T14:33:39;12.75;;;6.63;;
18265;SDS011;9259;48.194;16.322;2023-09-12T14:36:11;12.05;;;6.72;;
18265;SDS011;9259;48.194;16.322;2023-09-12T14:38:42;10.55;;;5.65;;
18265;SDS011;9259;48.194;16.322;2023-09-12T14:41:13;10.88;;;7.05;;
18265;SDS011;9259;48.194;16.322;2023-09-12T14:43:43;9.00;;;6.45;;
18265;SDS011;9259;48.194;16.322;2023-09-12T14:46:13;10.30;;;6.63;;
18265;SDS011;9259;48.194;16.322;2023-09-12T14:48:44;12.50;;;6.72;;